createdAt,value
2022-09-24T00:01:39.302Z,67.05
2022-09-24T00:04:09.786Z,66.39
2022-09-24T00:06:45.173Z,65.13
2022-09-24T00:09:14.142Z,64.23
2022-09-24T00:11:43.592Z,63.97
2022-09-24T00:14:11.637Z,65.73
2022-09-24T00:16:40.341Z,66.70
2022-09-24T00:19:07.797Z,67.49
2022-09-24T00:21:36.650Z,66.09
2022-09-24T00:24:09.895Z,64.38
2022-09-24T00:26:52.265Z,65.14
2022-09-24T00:29:23.399Z,63.56
2022-09-24T00:31:52.785Z,62.74
2022-09-24T00:34:23.240Z,62.95
2022-09-24T00:36:50.693Z,63.32
2022-09-24T00:39:17.941Z,64.26
2022-09-24T00:41:50.356Z,64.41
2022-09-24T00:44:45.824Z,66.37
2022-09-24T00:47:35.183Z,67.98
2022-09-24T00:50:31.856Z,66.36
2022-09-24T00:53:05.154Z,65.59
2022-09-24T00:55:34.220Z,65.56
2022-09-24T00:58:04.616Z,64.63
2022-09-24T01:00:33.773Z,65.43
2022-09-24T01:03:03.320Z,65.06
2022-09-24T01:05:31.504Z,65.28
2022-09-24T01:07:58.801Z,64.60
2022-09-24T01:11:00.711Z,62.64
2022-09-24T01:14:00.373Z,61.78
2022-09-24T01:16:57.339Z,62.75
2022-09-24T01:19:48.992Z,64.26
2022-09-24T01:22:40.308Z,62.84
2022-09-24T01:25:16.638Z,63.21
2022-09-24T01:27:56.878Z,64.96
2022-09-24T01:30:25.521Z,67.37
2022-09-24T01:32:56.894Z,68.84
2022-09-24T01:35:29.741Z,68.74
2022-09-24T01:38:18.139Z,66.34
2022-09-24T01:40:46.650Z,66.51
2022-09-24T01:43:16.216Z,66.46
2022-09-24T01:45:43.408Z,66.49
2022-09-24T01:48:10.757Z,67.59
2022-09-24T01:50:47.147Z,68.40
2022-09-24T01:53:21.296Z,68.97
2022-09-24T01:55:52.221Z,67.49
2022-09-24T01:58:37.362Z,67.70
2022-09-24T02:01:11.522Z,67.54
2022-09-24T02:03:43.192Z,68.95
2022-09-24T02:06:14.221Z,68.52
2022-09-24T02:08:46.327Z,67.24
2022-09-24T02:11:16.781Z,66.17
2022-09-24T02:13:49.689Z,65.85
2022-09-24T02:16:30.770Z,65.67
2022-09-24T02:19:00.954Z,65.83
2022-09-24T02:21:29.467Z,65.90
2022-09-24T02:24:01.869Z,65.64
2022-09-24T02:26:29.435Z,66.07
2022-09-24T02:28:59.147Z,66.24
2022-09-24T02:31:36.694Z,65.99
2022-09-24T02:34:23.533Z,66.29
2022-09-24T02:36:53.643Z,66.10
2022-09-24T02:39:21.092Z,66.52
2022-09-24T02:41:49.503Z,66.36
2022-09-24T02:44:17.393Z,65.94
2022-09-24T02:46:45.603Z,65.98
2022-09-24T02:49:14.464Z,66.07
2022-09-24T02:51:42.603Z,65.81
2022-09-24T02:54:11.760Z,66.31
2022-09-24T02:56:39.887Z,66.24
2022-09-24T02:59:07.715Z,66.21
2022-09-24T03:01:35.831Z,66.54
2022-09-24T03:04:03.560Z,66.87
2022-09-24T03:06:30.797Z,66.69
2022-09-24T03:08:58.030Z,66.78
2022-09-24T03:11:25.579Z,66.42
2022-09-24T03:13:52.749Z,66.57
2022-09-24T03:16:20.429Z,66.50
2022-09-24T03:18:48.163Z,66.28
2022-09-24T03:21:17.842Z,67.02
2022-09-24T03:23:45.039Z,68.71
2022-09-24T03:26:12.676Z,69.63
2022-09-24T03:28:40.677Z,69.25
2022-09-24T03:31:08.789Z,68.57
2022-09-24T03:33:44.708Z,68.36
2022-09-24T03:36:18.090Z,68.08
2022-09-24T03:38:45.971Z,68.93
2022-09-24T03:41:13.663Z,68.72
2022-09-24T03:43:46.225Z,68.02
2022-09-24T03:46:30.460Z,67.93
2022-09-24T03:49:07.414Z,67.28
2022-09-24T03:51:34.738Z,68.27
2022-09-24T03:54:02.005Z,68.34
2022-09-24T03:56:29.583Z,67.96
2022-09-24T03:58:59.358Z,67.99
2022-09-24T04:01:27.143Z,69.59
2022-09-24T04:03:54.400Z,71.36
2022-09-24T04:06:26.408Z,71.17
2022-09-24T04:08:53.881Z,70.99
2022-09-24T04:11:21.907Z,73.11
2022-09-24T04:13:54.861Z,74.11
2022-09-24T04:16:22.499Z,72.19
2022-09-24T04:18:50.986Z,70.55
2022-09-24T04:21:18.299Z,69.71
2022-09-24T04:23:45.545Z,69.34
2022-09-24T04:26:12.786Z,68.54
2022-09-24T04:28:39.982Z,68.40
2022-09-24T04:31:07.412Z,68.50
2022-09-24T04:33:34.625Z,68.48
2022-09-24T04:36:02.092Z,68.76
2022-09-24T04:38:29.254Z,69.49
2022-09-24T04:41:05.053Z,69.26
2022-09-24T04:43:33.164Z,69.13
2022-09-24T04:46:01.097Z,70.65
2022-09-24T04:48:28.469Z,72.37
2022-09-24T04:50:55.892Z,72.01
2022-09-24T04:53:23.684Z,71.38
2022-09-24T04:55:50.918Z,70.26
2022-09-24T04:58:18.195Z,69.65
2022-09-24T05:00:45.402Z,69.38
2022-09-24T05:03:12.930Z,68.97
2022-09-24T05:05:40.090Z,68.69
2022-09-24T05:08:07.306Z,68.93
2022-09-24T05:10:34.603Z,68.68
2022-09-24T05:13:02.354Z,68.23
2022-09-24T05:15:29.917Z,68.17
2022-09-24T05:17:57.770Z,67.89
2022-09-24T05:20:25.483Z,68.32
2022-09-24T05:22:52.790Z,68.31
2022-09-24T05:25:21.746Z,68.32
2022-09-24T05:27:55.862Z,68.92
2022-09-24T05:30:25.039Z,69.05
2022-09-24T05:32:52.971Z,69.18
2022-09-24T05:35:21.571Z,68.77
2022-09-24T05:37:49.786Z,68.50
2022-09-24T05:40:35.983Z,68.37
2022-09-24T05:43:04.921Z,68.24
2022-09-24T05:45:32.600Z,68.55
2022-09-24T05:48:00.244Z,69.67
2022-09-24T05:50:27.924Z,70.86
2022-09-24T05:52:55.258Z,70.34
2022-09-24T05:55:22.552Z,69.95
2022-09-24T05:57:49.782Z,69.72
2022-09-24T06:00:17.034Z,70.35
2022-09-24T06:02:44.744Z,69.79
2022-09-24T06:05:13.622Z,69.65
2022-09-24T06:07:40.857Z,70.10
2022-09-24T06:10:08.660Z,69.70
2022-09-24T06:12:35.953Z,69.74
2022-09-24T06:15:03.351Z,69.85
2022-09-24T06:17:31.864Z,69.75
2022-09-24T06:19:59.182Z,69.87
2022-09-24T06:22:28.870Z,70.00
2022-09-24T06:24:56.613Z,70.33
2022-09-24T06:27:24.255Z,70.46
2022-09-24T06:29:51.578Z,71.01
2022-09-24T06:32:19.928Z,70.86
2022-09-24T06:34:47.698Z,70.91
2022-09-24T06:37:14.942Z,70.76
2022-09-24T06:39:42.639Z,71.10
2022-09-24T06:42:09.908Z,71.52
2022-09-24T06:44:37.283Z,71.54
2022-09-24T06:47:06.052Z,71.20
2022-09-24T06:49:36.477Z,71.21
2022-09-24T06:52:04.648Z,71.18
2022-09-24T06:54:31.929Z,72.04
2022-09-24T06:56:59.255Z,72.77
2022-09-24T06:59:26.720Z,72.47
2022-09-24T07:01:53.992Z,71.82
2022-09-24T07:04:21.676Z,70.96
2022-09-24T07:07:07.451Z,71.11
2022-09-24T07:09:36.507Z,71.90
2022-09-24T07:12:05.880Z,71.65
2022-09-24T07:14:33.293Z,71.89
2022-09-24T07:17:00.520Z,71.03
2022-09-24T07:19:27.843Z,71.06
2022-09-24T07:21:55.156Z,71.15
2022-09-24T07:24:22.355Z,71.16
2022-09-24T07:26:49.666Z,70.99
2022-09-24T07:29:16.940Z,71.09
2022-09-24T07:31:44.224Z,71.08
2022-09-24T07:34:12.142Z,71.44
2022-09-24T07:36:39.851Z,70.81
2022-09-24T07:39:07.224Z,71.49
2022-09-24T07:41:39.972Z,71.24
2022-09-24T07:44:12.408Z,71.23
2022-09-24T07:46:39.675Z,71.13
2022-09-24T07:49:07.262Z,71.00
2022-09-24T07:51:39.889Z,70.79
2022-09-24T07:54:07.374Z,71.76
2022-09-24T07:56:35.204Z,72.00
2022-09-24T07:59:16.599Z,72.71
2022-09-24T08:01:43.975Z,72.41
2022-09-24T08:04:11.431Z,73.04
2022-09-24T08:06:42.414Z,73.09
2022-09-24T08:09:12.555Z,73.30
2022-09-24T08:11:40.028Z,73.65
2022-09-24T08:14:07.245Z,74.85
2022-09-24T08:16:34.605Z,74.54
2022-09-24T08:19:01.957Z,73.49
2022-09-24T08:21:29.178Z,72.60
2022-09-24T08:24:01.346Z,73.76
2022-09-24T08:26:28.765Z,73.26
2022-09-24T08:28:56.299Z,73.85
2022-09-24T08:31:23.662Z,73.09
2022-09-24T08:33:50.961Z,73.68
2022-09-24T08:36:18.807Z,74.36
2022-09-24T08:38:46.170Z,75.21
2022-09-24T08:41:13.287Z,75.28
2022-09-24T08:43:50.823Z,73.76
2022-09-24T08:46:59.610Z,73.33
2022-09-24T08:49:35.199Z,73.98
2022-09-24T08:52:34.504Z,73.65
2022-09-24T08:55:25.632Z,72.77
2022-09-24T08:58:03.373Z,73.89
2022-09-24T09:00:32.120Z,72.61
2022-09-24T09:03:10.698Z,71.79
2022-09-24T09:05:55.284Z,71.58
2022-09-24T09:09:07.919Z,71.62
2022-09-24T09:11:37.172Z,72.31
2022-09-24T09:14:17.622Z,74.23
2022-09-24T09:17:06.696Z,72.80
2022-09-24T09:19:35.293Z,73.24
2022-09-24T09:22:16.597Z,73.98
2022-09-24T09:24:49.997Z,72.80
2022-09-24T09:27:18.864Z,72.58
2022-09-24T09:29:49.924Z,72.91
2022-09-24T09:32:43.475Z,73.24
2022-09-24T09:35:41.416Z,72.02
2022-09-24T09:38:35.760Z,71.85
2022-09-24T09:41:37.464Z,72.16
2022-09-24T09:44:15.334Z,71.97
2022-09-24T09:46:49.732Z,71.80
2022-09-24T09:49:18.018Z,70.79
2022-09-24T09:51:46.869Z,70.03
2022-09-24T09:54:14.344Z,69.60
2022-09-24T09:56:44.936Z,70.83
2022-09-24T09:59:12.067Z,72.18
2022-09-24T10:01:55.937Z,72.02
2022-09-24T10:04:35.295Z,71.54
2022-09-24T10:07:13.950Z,70.93
2022-09-24T10:09:42.241Z,73.16
2022-09-24T10:12:24.193Z,73.69
2022-09-24T10:15:12.369Z,73.86
2022-09-24T10:17:39.939Z,73.15
2022-09-24T10:20:18.585Z,72.68
2022-09-24T10:22:54.855Z,72.46
2022-09-24T10:25:29.928Z,72.66
2022-09-24T10:28:18.401Z,72.04
2022-09-24T10:30:55.366Z,72.04
2022-09-24T10:33:23.551Z,71.16
2022-09-24T10:35:51.412Z,69.73
2022-09-24T10:38:21.504Z,70.25
2022-09-24T10:40:48.811Z,70.14
2022-09-24T10:43:19.130Z,68.75
2022-09-24T10:45:55.387Z,70.30
2022-09-24T10:48:41.838Z,69.37
2022-09-24T10:51:44.069Z,70.12
2022-09-24T10:54:30.468Z,69.44
2022-09-24T10:56:59.597Z,68.67
2022-09-24T10:59:50.179Z,68.76
2022-09-24T11:02:59.866Z,68.08
2022-09-24T11:05:41.223Z,67.96
2022-09-24T11:08:37.357Z,68.08
2022-09-24T11:11:12.336Z,67.00
2022-09-24T11:13:51.623Z,66.45
2022-09-24T11:16:39.415Z,66.91
2022-09-24T11:19:28.711Z,66.18
2022-09-24T11:21:58.856Z,66.36
2022-09-24T11:24:28.815Z,66.48
2022-09-24T11:26:55.956Z,66.29
2022-09-24T11:29:44.282Z,66.06
2022-09-24T11:32:29.869Z,69.36
2022-09-24T11:35:35.532Z,68.69
2022-09-24T11:38:28.476Z,67.97
2022-09-24T11:41:12.773Z,67.83
2022-09-24T11:43:52.793Z,66.12
2022-09-24T11:46:32.297Z,66.65
2022-09-24T11:49:11.281Z,65.11
2022-09-24T11:51:59.642Z,65.32
2022-09-24T11:54:29.596Z,65.38
2022-09-24T11:57:09.031Z,65.63
2022-09-24T11:59:45.507Z,65.40
2022-09-24T12:02:20.947Z,64.82
2022-09-24T12:04:55.594Z,64.38
2022-09-24T12:07:28.243Z,63.35
2022-09-24T12:10:25.110Z,63.01
2022-09-24T12:12:59.507Z,63.54
2022-09-24T12:15:43.906Z,63.79
2022-09-24T12:18:18.829Z,64.02
2022-09-24T12:20:56.790Z,62.64
2022-09-24T12:23:29.860Z,63.70
2022-09-24T12:26:09.193Z,63.37
2022-09-24T12:29:05.938Z,64.32
2022-09-24T12:32:07.389Z,64.20
2022-09-24T12:34:56.509Z,64.03
2022-09-24T12:37:30.082Z,62.98
2022-09-24T12:40:12.804Z,63.30
2022-09-24T12:42:43.779Z,63.63
2022-09-24T12:45:16.693Z,63.14
2022-09-24T12:47:50.650Z,63.36
2022-09-24T12:50:27.313Z,62.94
2022-09-24T12:52:55.500Z,62.02
2022-09-24T12:55:28.950Z,60.24
2022-09-24T12:57:59.751Z,61.48
2022-09-24T13:00:36.434Z,61.59
2022-09-24T13:03:05.795Z,60.77
2022-09-24T13:05:42.480Z,60.16
2022-09-24T13:08:16.975Z,59.73
2022-09-24T13:11:05.809Z,60.00
2022-09-24T13:13:36.996Z,60.57
2022-09-24T13:16:21.442Z,60.61
2022-09-24T13:18:57.200Z,59.79
2022-09-24T13:21:26.642Z,59.16
2022-09-24T13:23:54.817Z,58.51
2022-09-24T13:26:25.198Z,58.17
2022-09-24T13:29:04.247Z,58.68
2022-09-24T13:31:38.514Z,57.87
2022-09-24T13:34:32.014Z,58.80
2022-09-24T13:37:03.779Z,58.81
2022-09-24T13:39:45.361Z,58.73
2022-09-24T13:42:18.515Z,59.52
2022-09-24T13:44:49.277Z,58.02
2022-09-24T13:47:36.317Z,57.62
2022-09-24T13:50:09.778Z,57.64
2022-09-24T13:52:43.087Z,58.29
2022-09-24T13:55:34.055Z,56.91
2022-09-24T13:58:01.409Z,57.68
2022-09-24T14:00:31.375Z,56.72
2022-09-24T14:02:58.802Z,57.98
2022-09-24T14:05:26.887Z,58.04
2022-09-24T14:08:14.650Z,58.12
2022-09-24T14:10:42.807Z,60.66
2022-09-24T14:13:22.728Z,61.44
2022-09-24T14:16:03.084Z,62.47
2022-09-24T14:18:30.858Z,64.11
2022-09-24T14:20:59.808Z,65.72
2022-09-24T14:23:31.750Z,65.23
2022-09-24T14:26:00.241Z,64.71
2022-09-24T14:28:32.814Z,65.82
2022-09-24T14:31:00.839Z,66.37
2022-09-24T14:33:32.612Z,66.33
2022-09-24T14:36:17.012Z,67.94
2022-09-24T14:38:57.857Z,67.42
2022-09-24T14:41:32.051Z,66.40
2022-09-24T14:44:03.443Z,66.98
2022-09-24T14:46:58.313Z,69.69
2022-09-24T14:49:43.522Z,70.20
2022-09-24T14:52:30.887Z,70.21
2022-09-24T14:55:22.053Z,69.83
2022-09-24T14:57:55.292Z,71.95
2022-09-24T15:00:38.414Z,72.00
2022-09-24T15:03:13.345Z,71.76
2022-09-24T15:05:40.741Z,72.77
2022-09-24T15:08:23.344Z,71.61
2022-09-24T15:11:01.007Z,71.53
2022-09-24T15:13:38.258Z,71.30
2022-09-24T15:16:07.312Z,71.39
2022-09-24T15:18:35.704Z,71.16
2022-09-24T15:21:08.387Z,70.66
2022-09-24T15:23:35.950Z,71.33
2022-09-24T15:26:04.376Z,70.17
2022-09-24T15:28:45.139Z,70.05
2022-09-24T15:31:12.586Z,71.63
2022-09-24T15:33:42.247Z,71.84
2022-09-24T15:36:21.219Z,71.53
2022-09-24T15:38:52.996Z,72.03
2022-09-24T15:41:20.310Z,71.45
2022-09-24T15:43:47.595Z,72.64
2022-09-24T15:46:14.891Z,72.96
2022-09-24T15:48:42.352Z,72.94
2022-09-24T15:51:14.993Z,70.75
2022-09-24T15:53:43.023Z,71.59
2022-09-24T15:56:10.257Z,72.29
2022-09-24T15:58:37.734Z,72.06
2022-09-24T16:01:05.244Z,71.16
2022-09-24T16:03:33.298Z,72.03
2022-09-24T16:06:00.602Z,72.37
2022-09-24T16:08:30.530Z,71.59
2022-09-24T16:10:57.778Z,70.61
2022-09-24T16:13:26.312Z,72.57
2022-09-24T16:15:55.372Z,70.00
2022-09-24T16:18:25.984Z,72.61
2022-09-24T16:20:53.508Z,72.19
2022-09-24T16:23:20.913Z,73.41
2022-09-24T16:25:58.281Z,73.42
2022-09-24T16:28:29.685Z,73.74
2022-09-24T16:30:58.309Z,74.66
2022-09-24T16:33:25.930Z,75.23
2022-09-24T16:35:53.150Z,73.12
2022-09-24T16:38:22.784Z,71.78
2022-09-24T16:40:59.667Z,69.58
2022-09-24T16:43:27.124Z,70.03
2022-09-24T16:45:54.298Z,70.02
2022-09-24T16:48:21.721Z,69.50
2022-09-24T16:50:49.485Z,69.29
2022-09-24T16:53:16.769Z,69.49
2022-09-24T16:55:43.955Z,68.71
2022-09-24T16:58:11.256Z,67.95
2022-09-24T17:00:42.513Z,68.22
2022-09-24T17:03:11.465Z,68.37
2022-09-24T17:05:40.792Z,69.13
2022-09-24T17:08:08.555Z,68.44
2022-09-24T17:10:35.694Z,68.43
2022-09-24T17:13:03.332Z,68.83
2022-09-24T17:15:30.810Z,69.04
2022-09-24T17:17:59.463Z,69.21
2022-09-24T17:20:26.687Z,68.94
2022-09-24T17:22:53.898Z,68.42
2022-09-24T17:25:21.718Z,68.29
2022-09-24T17:27:49.016Z,68.19
2022-09-24T17:30:16.419Z,66.92
2022-09-24T17:32:43.569Z,69.17
2022-09-24T17:35:10.986Z,68.79
2022-09-24T17:37:38.445Z,69.38
2022-09-24T17:40:06.199Z,70.49
2022-09-24T17:42:33.948Z,71.36
2022-09-24T17:45:01.277Z,70.67
2022-09-24T17:47:49.926Z,70.70
2022-09-24T17:50:17.212Z,71.29
2022-09-24T17:52:44.762Z,71.70
2022-09-24T17:55:12.182Z,72.29
2022-09-24T17:57:39.361Z,73.01
2022-09-24T18:00:07.375Z,72.55
2022-09-24T18:02:38.900Z,72.33
2022-09-24T18:05:07.489Z,72.61
2022-09-24T18:07:34.813Z,74.01
2022-09-24T18:10:02.103Z,74.61
2022-09-24T18:12:29.663Z,74.40
2022-09-24T18:14:57.766Z,75.09
2022-09-24T18:17:25.062Z,75.48
2022-09-24T18:19:52.363Z,75.34
2022-09-24T18:22:19.636Z,75.70
2022-09-24T18:24:47.556Z,76.50
2022-09-24T18:27:16.043Z,75.86
2022-09-24T18:29:44.881Z,76.60
2022-09-24T18:32:13.507Z,77.67
2022-09-24T18:34:40.813Z,77.57
2022-09-24T18:37:08.023Z,78.17
2022-09-24T18:39:35.239Z,78.94
2022-09-24T18:42:02.609Z,79.34
2022-09-24T18:44:29.795Z,79.32
2022-09-24T18:46:57.207Z,79.99
2022-09-24T18:49:24.581Z,79.65
2022-09-24T18:51:52.052Z,80.31
2022-09-24T18:54:19.496Z,79.14
2022-09-24T18:56:46.966Z,78.20
2022-09-24T18:59:19.213Z,77.98
2022-09-24T19:01:47.847Z,78.87
2022-09-24T19:04:15.580Z,78.94
2022-09-24T19:06:44.713Z,78.91
2022-09-24T19:09:13.588Z,78.54
2022-09-24T19:11:41.951Z,77.94
2022-09-24T19:14:10.619Z,77.85
2022-09-24T19:16:38.033Z,77.24
2022-09-24T19:19:05.274Z,77.11
2022-09-24T19:21:32.579Z,76.01
2022-09-24T19:24:00.046Z,75.09
2022-09-24T19:26:32.060Z,74.28
2022-09-24T19:28:59.723Z,73.53
2022-09-24T19:31:32.927Z,73.54
2022-09-24T19:34:04.609Z,73.15
2022-09-24T19:36:43.661Z,73.20
2022-09-24T19:39:14.027Z,73.18
2022-09-24T19:41:41.850Z,73.03
2022-09-24T19:44:09.662Z,73.71
2022-09-24T19:46:38.422Z,74.06
2022-09-24T19:49:06.825Z,74.10
2022-09-24T19:51:34.885Z,73.66
2022-09-24T19:54:09.106Z,74.06
2022-09-24T19:56:37.122Z,75.06
2022-09-24T19:59:05.179Z,75.27
2022-09-24T20:01:33.218Z,74.88
2022-09-24T20:04:03.755Z,74.45
2022-09-24T20:06:33.613Z,73.56
2022-09-24T20:09:01.040Z,73.98
2022-09-24T20:11:29.365Z,73.50
2022-09-24T20:13:56.905Z,73.89
2022-09-24T20:16:26.360Z,75.05
2022-09-24T20:18:59.889Z,75.05
2022-09-24T20:21:29.165Z,75.35
2022-09-24T20:23:57.651Z,75.82
2022-09-24T20:26:44.291Z,76.93
2022-09-24T20:29:13.038Z,77.15
2022-09-24T20:31:52.020Z,76.53
2022-09-24T20:34:28.764Z,76.74
2022-09-24T20:36:59.317Z,76.33
2022-09-24T20:39:27.173Z,77.10
2022-09-24T20:42:01.612Z,77.49
2022-09-24T20:44:29.728Z,77.49
2022-09-24T20:46:58.034Z,76.29
2022-09-24T20:49:25.769Z,75.98
2022-09-24T20:51:57.053Z,75.67
2022-09-24T20:54:25.835Z,76.42
2022-09-24T20:56:53.122Z,77.78
2022-09-24T20:59:20.400Z,79.25
2022-09-24T21:01:49.333Z,81.60
2022-09-24T21:04:17.606Z,80.78
2022-09-24T21:06:44.873Z,82.30
2022-09-24T21:09:13.478Z,84.11
2022-09-24T21:11:42.083Z,83.55
2022-09-24T21:14:10.928Z,82.92
2022-09-24T21:16:38.354Z,81.73
2022-09-24T21:19:07.791Z,81.17
2022-09-24T21:21:38.808Z,80.62
2022-09-24T21:24:08.505Z,79.71
2022-09-24T21:26:37.198Z,78.56
2022-09-24T21:29:16.489Z,76.84
2022-09-24T21:31:46.221Z,76.87
2022-09-24T21:34:15.988Z,76.90
2022-09-24T21:36:45.709Z,76.83
2022-09-24T21:39:18.174Z,76.40
2022-09-24T21:41:48.065Z,75.98
2022-09-24T21:44:16.918Z,77.43
2022-09-24T21:46:44.441Z,78.41
2022-09-24T21:49:12.170Z,77.67
2022-09-24T21:51:40.579Z,77.38
2022-09-24T21:54:09.669Z,77.60
2022-09-24T21:56:36.944Z,76.52
2022-09-24T21:59:27.930Z,76.54
2022-09-24T22:01:56.747Z,75.73
2022-09-24T22:04:24.148Z,76.48
2022-09-24T22:06:51.759Z,75.93
2022-09-24T22:09:19.556Z,75.43
2022-09-24T22:11:47.206Z,73.86
2022-09-24T22:14:14.747Z,73.47
2022-09-24T22:16:42.156Z,73.74
2022-09-24T22:19:09.531Z,73.96
2022-09-24T22:21:36.896Z,74.75
2022-09-24T22:24:04.988Z,74.46
2022-09-24T22:26:32.625Z,73.52
2022-09-24T22:29:00.433Z,73.28
2022-09-24T22:31:28.207Z,72.57
2022-09-24T22:34:13.897Z,73.14
2022-09-24T22:36:41.336Z,72.19
2022-09-24T22:39:09.087Z,71.92
2022-09-24T22:41:38.951Z,72.03
2022-09-24T22:44:07.589Z,71.85
2022-09-24T22:46:36.329Z,71.99
2022-09-24T22:49:05.257Z,72.51
2022-09-24T22:51:33.435Z,74.01
2022-09-24T22:54:00.867Z,72.42
2022-09-24T22:56:29.915Z,72.04
2022-09-24T22:58:59.325Z,72.96
2022-09-24T23:01:32.213Z,71.62
2022-09-24T23:04:00.433Z,71.63
2022-09-24T23:06:28.116Z,72.06
2022-09-24T23:08:55.396Z,71.58
2022-09-24T23:11:24.039Z,71.76
2022-09-24T23:14:03.249Z,72.41
2022-09-24T23:16:34.257Z,72.38
2022-09-24T23:19:04.352Z,73.25
2022-09-24T23:21:32.539Z,73.22
2022-09-24T23:24:16.798Z,73.04
2022-09-24T23:26:45.024Z,73.51
2022-09-24T23:29:13.254Z,73.26
2022-09-24T23:31:40.600Z,72.98
2022-09-24T23:34:10.541Z,72.52
2022-09-24T23:36:37.846Z,71.72
2022-09-24T23:39:05.986Z,72.43
2022-09-24T23:41:33.356Z,73.11
2022-09-24T23:44:00.645Z,72.15
2022-09-24T23:46:28.412Z,72.49
2022-09-24T23:48:56.282Z,72.38
2022-09-24T23:51:23.600Z,73.53
2022-09-24T23:53:50.925Z,73.53
2022-09-24T23:56:18.825Z,73.13
2022-09-24T23:58:46.127Z,73.42
